createdAt,value
2019-03-08T00:01:33.239Z,9.40
2019-03-08T00:04:03.855Z,9.30
2019-03-08T00:06:35.028Z,9.30
2019-03-08T00:09:09.035Z,9.30
2019-03-08T00:11:39.829Z,9.20
2019-03-08T00:14:10.481Z,9.20
2019-03-08T00:16:40.880Z,9.10
2019-03-08T00:19:11.496Z,9.10
2019-03-08T00:21:42.319Z,9.10
2019-03-08T00:24:12.377Z,9.10
2019-03-08T00:26:43.036Z,9.00
2019-03-08T00:29:14.058Z,9.00
2019-03-08T00:31:44.699Z,9.00
2019-03-08T00:34:15.510Z,9.00
2019-03-08T00:36:46.443Z,9.00
2019-03-08T00:39:17.070Z,8.90
2019-03-08T00:41:48.274Z,8.90
2019-03-08T00:44:18.880Z,8.80
2019-03-08T00:46:49.410Z,8.80
2019-03-08T00:49:20.046Z,8.90
2019-03-08T00:51:50.476Z,8.90
2019-03-08T00:54:21.237Z,8.80
2019-03-08T00:56:51.973Z,8.90
2019-03-08T00:59:22.767Z,8.80
2019-03-08T01:01:53.998Z,8.80
2019-03-08T01:04:24.788Z,8.90
2019-03-08T01:06:56.309Z,9.00
2019-03-08T01:09:27.187Z,8.90
2019-03-08T01:11:57.907Z,8.90
2019-03-08T01:14:29.790Z,8.90
2019-03-08T01:17:01.271Z,8.90
2019-03-08T01:19:31.796Z,9.00
2019-03-08T01:22:02.388Z,9.00
2019-03-08T01:24:33.107Z,9.00
2019-03-08T01:27:04.339Z,9.10
2019-03-08T01:29:35.053Z,9.10
2019-03-08T01:32:06.287Z,9.10
2019-03-08T01:34:37.596Z,9.00
2019-03-08T01:37:08.213Z,9.10
2019-03-08T01:39:39.954Z,9.10
2019-03-08T01:42:10.761Z,9.10
2019-03-08T01:44:42.383Z,9.00
2019-03-08T01:47:13.431Z,8.90
2019-03-08T01:49:44.574Z,8.90
2019-03-08T01:52:15.579Z,8.90
2019-03-08T01:54:47.600Z,8.90
2019-03-08T01:57:18.773Z,8.90
2019-03-08T01:59:49.595Z,8.90
2019-03-08T02:02:20.196Z,8.90
2019-03-08T02:04:50.453Z,8.90
2019-03-08T02:07:21.220Z,9.00
2019-03-08T02:09:52.159Z,8.90
2019-03-08T02:12:23.324Z,9.00
2019-03-08T02:14:54.350Z,9.00
2019-03-08T02:17:24.919Z,8.90
2019-03-08T02:19:56.709Z,9.00
2019-03-08T02:22:27.879Z,9.00
2019-03-08T02:24:58.387Z,8.90
2019-03-08T02:27:29.650Z,9.00
2019-03-08T02:30:00.522Z,8.90
2019-03-08T02:32:31.580Z,8.90
2019-03-08T02:35:02.619Z,9.00
2019-03-08T02:37:33.272Z,8.90
2019-03-08T02:40:03.884Z,9.00
2019-03-08T02:42:34.426Z,9.00
2019-03-08T02:45:05.499Z,9.00
2019-03-08T02:47:36.390Z,8.90
2019-03-08T02:50:07.194Z,8.90
2019-03-08T02:52:37.853Z,8.90
2019-03-08T02:55:08.971Z,9.00
2019-03-08T02:57:39.670Z,9.00
2019-03-08T03:00:10.739Z,8.90
2019-03-08T03:02:41.674Z,9.10
2019-03-08T03:05:12.355Z,9.00
2019-03-08T03:07:42.866Z,8.90
2019-03-08T03:10:14.009Z,8.90
2019-03-08T03:12:45.049Z,9.00
2019-03-08T03:15:15.988Z,9.00
2019-03-08T03:17:46.562Z,9.20
2019-03-08T03:20:18.070Z,9.20
2019-03-08T03:22:48.432Z,9.20
2019-03-08T03:25:19.719Z,9.20
2019-03-08T03:27:50.519Z,9.10
2019-03-08T03:30:21.525Z,9.10
2019-03-08T03:32:52.153Z,9.00
2019-03-08T03:35:22.978Z,9.10
2019-03-08T03:37:53.516Z,9.10
2019-03-08T03:40:24.279Z,9.10
2019-03-08T03:42:54.754Z,9.20
2019-03-08T03:45:25.175Z,9.20
2019-03-08T03:47:55.878Z,9.10
2019-03-08T03:50:26.882Z,9.10
2019-03-08T03:52:57.235Z,9.10
2019-03-08T03:55:28.243Z,9.00
2019-03-08T03:57:58.607Z,9.10
2019-03-08T04:00:29.215Z,9.00
2019-03-08T04:03:01.310Z,9.00
2019-03-08T04:05:32.080Z,8.90
2019-03-08T04:08:02.960Z,8.90
2019-03-08T04:10:33.474Z,9.00
2019-03-08T04:13:04.558Z,9.00
2019-03-08T04:15:35.350Z,8.90
2019-03-08T04:18:06.121Z,8.90
2019-03-08T04:20:36.715Z,9.00
2019-03-08T04:23:07.706Z,8.90
2019-03-08T04:25:38.440Z,8.90
2019-03-08T04:28:09.103Z,8.80
2019-03-08T04:30:39.599Z,8.80
2019-03-08T04:33:10.543Z,8.80
2019-03-08T04:35:41.201Z,8.80
2019-03-08T04:38:11.879Z,8.90
2019-03-08T04:40:42.704Z,9.00
2019-03-08T04:43:13.189Z,9.10
2019-03-08T04:45:44.209Z,8.90
2019-03-08T04:48:14.970Z,8.90
2019-03-08T04:50:45.595Z,8.90
2019-03-08T04:53:16.947Z,8.90
2019-03-08T04:55:48.573Z,8.90
2019-03-08T04:58:19.199Z,8.90
2019-03-08T05:00:50.075Z,8.90
2019-03-08T05:03:21.127Z,8.80
2019-03-08T05:05:52.123Z,8.90
2019-03-08T05:08:22.640Z,8.90
2019-03-08T05:10:53.990Z,8.90
2019-03-08T05:13:24.697Z,8.90
2019-03-08T05:15:55.670Z,8.90
2019-03-08T05:18:27.258Z,8.90
2019-03-08T05:20:57.733Z,9.00
2019-03-08T05:23:28.511Z,9.10
2019-03-08T05:25:59.735Z,9.10
2019-03-08T05:28:30.313Z,9.10
2019-03-08T05:31:01.772Z,9.10
2019-03-08T05:33:32.638Z,9.10
2019-03-08T05:36:04.056Z,9.10
2019-03-08T05:38:34.736Z,9.10
2019-03-08T05:41:05.458Z,9.10
2019-03-08T05:43:37.429Z,9.10
2019-03-08T05:46:09.165Z,9.20
2019-03-08T05:48:40.181Z,9.10
2019-03-08T05:51:11.401Z,9.10
2019-03-08T05:53:42.333Z,9.10
2019-03-08T05:56:13.325Z,9.10
2019-03-08T05:58:44.113Z,9.00
2019-03-08T06:01:14.671Z,9.00
2019-03-08T06:03:46.101Z,8.90
2019-03-08T06:06:17.793Z,8.90
2019-03-08T06:08:49.321Z,9.00
2019-03-08T06:11:20.871Z,9.00
2019-03-08T06:13:51.601Z,9.00
2019-03-08T06:16:21.909Z,9.00
2019-03-08T06:18:52.526Z,9.10
2019-03-08T06:21:24.345Z,9.20
2019-03-08T06:23:55.617Z,9.20
2019-03-08T06:26:27.043Z,9.30
2019-03-08T06:28:58.393Z,9.40
2019-03-08T06:31:29.213Z,9.50
2019-03-08T06:34:00.246Z,9.60
2019-03-08T06:36:31.230Z,9.80
2019-03-08T06:39:01.777Z,9.90
2019-03-08T06:41:32.683Z,10.00
2019-03-08T06:44:03.848Z,10.10
2019-03-08T06:46:35.040Z,10.30
2019-03-08T06:49:05.421Z,10.40
2019-03-08T06:51:36.805Z,10.50
2019-03-08T06:54:07.855Z,10.60
2019-03-08T06:56:38.855Z,10.60
2019-03-08T06:59:22.328Z,10.60
2019-03-08T07:01:52.893Z,10.70
2019-03-08T07:04:23.542Z,10.80
2019-03-08T07:06:55.205Z,10.90
2019-03-08T07:09:26.156Z,11.10
2019-03-08T07:11:57.057Z,11.10
2019-03-08T07:14:27.573Z,11.20
2019-03-08T07:16:58.005Z,11.50
2019-03-08T07:19:28.490Z,12.00
2019-03-08T07:22:06.776Z,12.30
2019-03-08T07:24:56.391Z,12.70
2019-03-08T07:27:45.991Z,13.00
2019-03-08T07:30:36.681Z,13.30
2019-03-08T07:33:16.040Z,13.70
2019-03-08T07:36:14.898Z,13.90
2019-03-08T07:39:04.510Z,13.90
2019-03-08T07:42:03.771Z,14.00
2019-03-08T07:44:45.206Z,14.40
2019-03-08T07:47:37.710Z,14.50
2019-03-08T07:50:28.359Z,14.60
2019-03-08T07:53:14.495Z,14.70
2019-03-08T07:56:10.149Z,14.80
2019-03-08T07:59:06.004Z,15.00
2019-03-08T08:01:55.559Z,15.10
2019-03-08T08:04:40.465Z,15.00
2019-03-08T08:07:36.733Z,15.00
2019-03-08T08:10:37.444Z,15.30
2019-03-08T08:13:30.038Z,15.40
2019-03-08T08:16:21.829Z,15.30
2019-03-08T08:19:03.289Z,15.30
2019-03-08T08:21:53.088Z,15.40
2019-03-08T08:24:28.319Z,15.50
2019-03-08T08:27:33.273Z,15.60
2019-03-08T08:30:20.560Z,15.90
2019-03-08T08:33:16.727Z,16.60
2019-03-08T08:36:13.269Z,16.20
2019-03-08T08:38:59.761Z,16.20
2019-03-08T08:41:43.281Z,16.70
2019-03-08T08:44:45.589Z,16.50
2019-03-08T08:47:26.230Z,16.40
2019-03-08T08:50:21.460Z,16.50
2019-03-08T08:53:23.195Z,16.40
2019-03-08T08:56:11.827Z,16.50
2019-03-08T08:59:02.165Z,16.40
2019-03-08T09:01:55.303Z,16.30
2019-03-08T09:04:51.139Z,16.10
2019-03-08T09:07:30.639Z,15.70
2019-03-08T09:10:08.753Z,15.90
2019-03-08T09:12:58.845Z,16.30
2019-03-08T09:15:37.001Z,16.70
2019-03-08T09:18:36.139Z,16.40
2019-03-08T09:21:44.553Z,15.80
2019-03-08T09:24:24.960Z,14.80
2019-03-08T09:27:13.945Z,14.20
2019-03-08T09:30:03.799Z,13.80
2019-03-08T09:32:48.062Z,13.60
2019-03-08T09:35:26.137Z,13.40
2019-03-08T09:38:02.625Z,13.50
2019-03-08T09:40:50.683Z,13.40
2019-03-08T09:43:42.811Z,13.30
2019-03-08T09:46:30.846Z,13.10
2019-03-08T09:49:18.866Z,12.90
2019-03-08T09:51:58.549Z,13.40
2019-03-08T09:54:35.667Z,13.90
2019-03-08T09:57:27.190Z,14.00
2019-03-08T10:00:19.731Z,14.50
2019-03-08T10:03:06.159Z,14.60
2019-03-08T10:05:50.553Z,14.00
2019-03-08T10:08:38.215Z,13.70
2019-03-08T10:11:22.827Z,13.50
2019-03-08T10:14:11.560Z,13.50
2019-03-08T10:17:06.509Z,14.00
2019-03-08T10:19:53.905Z,14.10
2019-03-08T10:22:43.479Z,14.60
2019-03-08T10:25:33.616Z,14.90
2019-03-08T10:28:23.767Z,15.20
2019-03-08T10:31:00.311Z,15.80
2019-03-08T10:33:46.470Z,16.30
2019-03-08T10:36:27.905Z,16.90
2019-03-08T10:39:27.039Z,17.20
2019-03-08T10:42:14.845Z,17.40
2019-03-08T10:44:55.477Z,17.40
2019-03-08T10:47:55.811Z,16.60
2019-03-08T10:50:52.636Z,16.10
2019-03-08T10:53:32.749Z,15.70
2019-03-08T10:56:15.847Z,15.00
2019-03-08T10:59:08.314Z,14.50
2019-03-08T11:01:53.973Z,14.20
2019-03-08T11:04:43.351Z,14.00
2019-03-08T11:07:34.359Z,13.90
2019-03-08T11:10:18.279Z,13.70
2019-03-08T11:13:18.039Z,13.70
2019-03-08T11:16:09.710Z,13.60
2019-03-08T11:19:09.169Z,13.60
2019-03-08T11:21:58.288Z,13.60
2019-03-08T11:24:55.253Z,13.40
2019-03-08T11:27:47.699Z,13.50
2019-03-08T11:30:53.997Z,13.40
2019-03-08T11:33:32.905Z,13.30
2019-03-08T11:36:14.401Z,13.20
2019-03-08T11:39:04.034Z,13.00
2019-03-08T11:41:53.797Z,12.90
2019-03-08T11:44:40.352Z,12.70
2019-03-08T11:47:21.719Z,12.70
2019-03-08T11:50:29.707Z,12.60
2019-03-08T11:53:08.625Z,12.60
2019-03-08T11:56:10.295Z,12.60
2019-03-08T11:58:58.326Z,12.60
2019-03-08T12:01:54.519Z,12.60
2019-03-08T12:04:42.918Z,12.60
2019-03-08T12:07:23.761Z,12.50
2019-03-08T12:10:06.168Z,12.40
2019-03-08T12:13:13.698Z,12.30
2019-03-08T12:15:55.776Z,12.20
2019-03-08T12:19:00.405Z,12.20
2019-03-08T12:21:48.853Z,12.20
2019-03-08T12:24:37.094Z,12.20
2019-03-08T12:27:18.227Z,12.40
2019-03-08T12:30:11.459Z,12.40
2019-03-08T12:32:52.445Z,12.60
2019-03-08T12:35:51.199Z,12.70
2019-03-08T12:38:31.962Z,12.70
2019-03-08T12:41:09.478Z,12.70
2019-03-08T12:44:14.261Z,12.80
2019-03-08T12:47:03.862Z,12.90
2019-03-08T12:49:53.552Z,13.00
2019-03-08T12:52:41.723Z,13.00
2019-03-08T12:55:46.319Z,13.00
2019-03-08T12:58:28.637Z,12.90
2019-03-08T13:01:21.443Z,12.80
2019-03-08T13:04:14.081Z,12.60
2019-03-08T13:07:09.295Z,12.40
2019-03-08T13:09:56.443Z,12.20
2019-03-08T13:12:27.403Z,12.20
2019-03-08T13:14:57.845Z,12.20
2019-03-08T13:17:29.077Z,12.20
2019-03-08T13:19:59.697Z,12.20
2019-03-08T13:22:31.055Z,12.10
2019-03-08T13:25:01.952Z,12.10
2019-03-08T13:27:33.218Z,12.10
2019-03-08T13:30:04.324Z,12.00
2019-03-08T13:32:35.307Z,12.00
2019-03-08T13:35:06.454Z,12.10
2019-03-08T13:37:37.373Z,12.20
2019-03-08T13:40:10.322Z,12.40
2019-03-08T13:42:41.431Z,12.40
2019-03-08T13:45:14.114Z,12.30
2019-03-08T13:47:44.581Z,12.40
2019-03-08T13:50:15.857Z,12.40
2019-03-08T13:52:48.846Z,12.30
2019-03-08T13:55:21.718Z,12.20
2019-03-08T13:57:52.704Z,12.00
2019-03-08T14:00:24.247Z,11.90
2019-03-08T14:02:56.399Z,11.90
2019-03-08T14:05:29.148Z,11.90
2019-03-08T14:08:03.360Z,11.90
2019-03-08T14:10:34.437Z,11.90
2019-03-08T14:13:07.399Z,11.80
2019-03-08T14:15:38.981Z,11.80
2019-03-08T14:18:10.062Z,11.80
2019-03-08T14:20:41.356Z,11.80
2019-03-08T14:23:12.093Z,11.90
2019-03-08T14:25:44.142Z,12.00
2019-03-08T14:28:16.332Z,12.00
2019-03-08T14:31:00.111Z,12.10
2019-03-08T14:33:34.426Z,12.10
2019-03-08T14:36:11.866Z,12.10
2019-03-08T14:38:47.446Z,12.10
2019-03-08T14:41:34.666Z,12.00
2019-03-08T14:44:40.494Z,12.10
2019-03-08T14:47:33.359Z,12.00
2019-03-08T14:50:05.901Z,11.80
2019-03-08T14:52:37.874Z,11.80
2019-03-08T14:55:13.091Z,11.80
2019-03-08T14:57:44.166Z,11.80
2019-03-08T15:00:25.241Z,11.80
2019-03-08T15:02:56.147Z,11.80
2019-03-08T15:05:27.048Z,11.80
2019-03-08T15:07:58.213Z,11.80
2019-03-08T15:10:28.672Z,11.80
2019-03-08T15:12:59.230Z,11.70
2019-03-08T15:15:31.470Z,11.80
2019-03-08T15:18:03.009Z,11.70
2019-03-08T15:20:37.767Z,11.70
2019-03-08T15:23:13.396Z,11.70
2019-03-08T15:25:48.483Z,11.60
2019-03-08T15:28:18.004Z,11.60
2019-03-08T15:30:49.980Z,11.60
2019-03-08T15:33:20.700Z,11.60
2019-03-08T15:35:51.730Z,11.60
2019-03-08T15:38:22.633Z,11.60
2019-03-08T15:40:53.509Z,11.50
2019-03-08T15:43:24.175Z,11.50
2019-03-08T15:45:57.307Z,11.50
2019-03-08T15:48:28.355Z,11.50
2019-03-08T15:51:00.975Z,11.40
2019-03-08T15:53:32.519Z,11.40
2019-03-08T15:56:03.079Z,11.20
2019-03-08T15:58:34.091Z,11.10
2019-03-08T16:01:08.062Z,11.10
2019-03-08T16:03:39.017Z,11.00
2019-03-08T16:06:10.726Z,11.00
2019-03-08T16:08:44.649Z,11.00
2019-03-08T16:11:15.948Z,11.00
2019-03-08T16:13:46.694Z,10.90
2019-03-08T16:16:17.771Z,10.90
2019-03-08T16:18:48.298Z,10.90
2019-03-08T16:21:19.206Z,10.80
2019-03-08T16:23:51.808Z,10.80
2019-03-08T16:26:25.305Z,10.60
2019-03-08T16:28:57.820Z,10.40
2019-03-08T16:31:37.426Z,10.20
2019-03-08T16:34:09.367Z,10.00
2019-03-08T16:36:45.800Z,9.90
2019-03-08T16:39:46.055Z,9.80
2019-03-08T16:42:42.805Z,9.70
2019-03-08T16:45:54.917Z,9.60
2019-03-08T16:48:45.889Z,9.50
2019-03-08T16:51:41.575Z,9.30
2019-03-08T16:54:22.081Z,9.30
2019-03-08T16:57:22.727Z,9.20
2019-03-08T17:00:18.767Z,9.10
2019-03-08T17:03:00.438Z,9.10
2019-03-08T17:05:48.690Z,9.00
2019-03-08T17:08:47.590Z,9.00
2019-03-08T17:11:39.789Z,9.00
2019-03-08T17:14:35.127Z,9.00
2019-03-08T17:17:24.096Z,9.00
2019-03-08T17:20:08.896Z,9.00
2019-03-08T17:22:52.211Z,8.90
2019-03-08T17:25:45.641Z,8.90
2019-03-08T17:28:30.215Z,8.90
2019-03-08T17:31:38.540Z,8.70
2019-03-08T17:34:28.055Z,8.60
2019-03-08T17:37:08.776Z,8.60
2019-03-08T17:40:10.636Z,8.50
2019-03-08T17:43:03.367Z,8.50
2019-03-08T17:45:53.422Z,8.50
2019-03-08T17:48:41.687Z,8.40
2019-03-08T17:51:38.154Z,8.30
2019-03-08T17:54:39.735Z,8.20
2019-03-08T17:57:32.133Z,8.20
2019-03-08T18:00:15.869Z,8.20
2019-03-08T18:02:59.019Z,8.10
2019-03-08T18:05:47.033Z,8.10
2019-03-08T18:08:37.771Z,8.00
2019-03-08T18:11:34.724Z,8.00
2019-03-08T18:14:23.336Z,8.10
2019-03-08T18:17:18.476Z,8.10
2019-03-08T18:19:58.127Z,8.10
2019-03-08T18:22:38.655Z,8.10
2019-03-08T18:25:37.540Z,8.10
2019-03-08T18:28:30.094Z,8.10
2019-03-08T18:31:20.589Z,8.10
2019-03-08T18:34:05.015Z,8.10
2019-03-08T18:37:02.484Z,8.00
2019-03-08T18:39:56.795Z,8.10
2019-03-08T18:42:49.665Z,8.00
2019-03-08T18:45:37.676Z,8.00
2019-03-08T18:48:28.547Z,8.00
2019-03-08T18:51:07.829Z,8.00
2019-03-08T18:54:03.226Z,8.00
2019-03-08T18:56:46.876Z,8.00
2019-03-08T18:59:40.854Z,7.90
2019-03-08T19:02:30.260Z,7.90
2019-03-08T19:05:20.654Z,7.90
2019-03-08T19:08:10.653Z,7.80
2019-03-08T19:11:00.479Z,7.80
2019-03-08T19:14:05.712Z,7.70
2019-03-08T19:16:44.878Z,7.70
2019-03-08T19:19:40.662Z,7.60
2019-03-08T19:22:40.806Z,7.60
2019-03-08T19:25:34.556Z,7.60
2019-03-08T19:28:24.946Z,7.60
2019-03-08T19:31:17.992Z,7.60
2019-03-08T19:34:03.088Z,7.60
2019-03-08T19:36:53.436Z,7.50
2019-03-08T19:39:43.764Z,7.60
2019-03-08T19:42:22.381Z,7.50
2019-03-08T19:45:08.783Z,7.50
2019-03-08T19:48:05.321Z,7.50
2019-03-08T19:50:55.103Z,7.50
2019-03-08T19:53:45.494Z,7.50
2019-03-08T19:56:39.026Z,7.50
2019-03-08T19:59:33.454Z,7.50
2019-03-08T20:02:22.544Z,7.50
2019-03-08T20:05:07.424Z,7.50
2019-03-08T20:07:55.931Z,7.40
2019-03-08T20:10:58.044Z,7.30
2019-03-08T20:13:47.274Z,7.20
2019-03-08T20:16:49.041Z,7.20
2019-03-08T20:19:45.767Z,7.20
2019-03-08T20:22:45.494Z,7.20
2019-03-08T20:25:44.375Z,7.20
2019-03-08T20:28:37.618Z,7.20
2019-03-08T20:31:30.692Z,7.20
2019-03-08T20:34:07.395Z,7.20
2019-03-08T20:36:46.546Z,7.20
2019-03-08T20:39:40.374Z,7.20
2019-03-08T20:42:40.325Z,7.20
2019-03-08T20:45:30.586Z,7.20
2019-03-08T20:48:01.411Z,7.10
2019-03-08T20:50:33.380Z,7.10
2019-03-08T20:53:04.858Z,7.10
2019-03-08T20:55:36.355Z,7.10
2019-03-08T20:58:07.918Z,7.00
2019-03-08T21:00:39.370Z,7.00
2019-03-08T21:03:10.708Z,7.10
2019-03-08T21:05:42.615Z,7.10
2019-03-08T21:08:13.882Z,7.10
2019-03-08T21:10:46.360Z,7.10
2019-03-08T21:13:18.010Z,7.10
2019-03-08T21:15:50.531Z,7.10
2019-03-08T21:18:21.066Z,7.20
2019-03-08T21:20:52.079Z,7.10
2019-03-08T21:23:22.971Z,7.10
2019-03-08T21:25:54.127Z,7.10
2019-03-08T21:28:25.651Z,7.00
2019-03-08T21:30:57.103Z,6.90
2019-03-08T21:33:27.777Z,6.90
2019-03-08T21:35:58.468Z,6.90
2019-03-08T21:38:29.849Z,6.80
2019-03-08T21:41:01.254Z,6.80
2019-03-08T21:43:31.995Z,6.80
2019-03-08T21:46:02.657Z,6.70
2019-03-08T21:48:33.771Z,6.60
2019-03-08T21:51:09.017Z,6.60
2019-03-08T21:53:43.293Z,6.70
2019-03-08T21:56:14.881Z,6.60
2019-03-08T21:58:45.986Z,6.60
2019-03-08T22:01:17.354Z,6.60
2019-03-08T22:03:55.316Z,6.50
2019-03-08T22:06:26.901Z,6.50
2019-03-08T22:09:19.457Z,6.50
2019-03-08T22:11:50.843Z,6.50
2019-03-08T22:14:21.373Z,6.40
2019-03-08T22:16:52.420Z,6.30
2019-03-08T22:19:24.375Z,6.30
2019-03-08T22:21:58.253Z,6.20
2019-03-08T22:24:28.875Z,6.20
2019-03-08T22:27:00.057Z,6.20
2019-03-08T22:29:30.689Z,6.20
2019-03-08T22:32:04.303Z,6.20
2019-03-08T22:34:35.035Z,6.20
2019-03-08T22:37:05.572Z,6.10
2019-03-08T22:39:36.961Z,6.20
2019-03-08T22:42:10.719Z,6.20
2019-03-08T22:44:41.725Z,6.20
2019-03-08T22:47:12.088Z,6.20
2019-03-08T22:49:42.935Z,6.30
2019-03-08T22:52:16.517Z,6.30
2019-03-08T22:54:47.167Z,6.50
2019-03-08T22:57:17.627Z,6.60
2019-03-08T22:59:48.308Z,6.60
2019-03-08T23:02:19.852Z,6.70
2019-03-08T23:04:50.406Z,6.70
2019-03-08T23:07:21.092Z,6.80
2019-03-08T23:09:51.817Z,6.90
2019-03-08T23:12:22.514Z,6.80
2019-03-08T23:14:53.152Z,7.00
2019-03-08T23:17:23.607Z,7.00
2019-03-08T23:19:54.642Z,7.00
2019-03-08T23:22:25.116Z,7.00
2019-03-08T23:24:56.000Z,7.00
2019-03-08T23:27:34.135Z,7.00
2019-03-08T23:30:22.263Z,7.10
2019-03-08T23:32:54.905Z,7.10
2019-03-08T23:35:26.203Z,7.10
2019-03-08T23:37:57.465Z,7.10
2019-03-08T23:40:29.362Z,7.10
2019-03-08T23:43:00.089Z,7.10
2019-03-08T23:45:30.738Z,7.10
2019-03-08T23:48:01.726Z,7.10
2019-03-08T23:50:32.600Z,7.10
2019-03-08T23:53:03.131Z,7.20
2019-03-08T23:55:34.698Z,7.20
2019-03-08T23:58:05.278Z,7.10
